Terminal Aerodrome Forecast
Issued by NWS

Home | Current Version | Previous Version | Text Only | Print | Product List | Glossary On
Versions: 1 2 3 4 5 6 7 8 9 10 11 12 13 14 15 16
000
FTUS45 KGJT 160526
TAFCNY
TAF
KCNY 160526Z 1606/1706 29006KT P6SM BKN200
     FM162000 30010G18KT P6SM SCT070 OVC100
     FM170000 31007KT P6SM SCT100=

USA.gov is the U.S. government's official web portal to all federal, state and local government web resources and services.